sensor_id;sensor_type;location;lat;lon;timestamp;P1;durP1;ratioP1;P2;durP2;ratioP2
20150;SDS011;10236;49.638;6.830;2022-12-16T00:00:02;4.83;;;2.83;;
20150;SDS011;10236;49.638;6.830;2022-12-16T00:02:29;5.17;;;3.13;;
20150;SDS011;10236;49.638;6.830;2022-12-16T00:04:55;6.30;;;3.93;;
20150;SDS011;10236;49.638;6.830;2022-12-16T00:07:21;6.23;;;4.13;;
20150;SDS011;10236;49.638;6.830;2022-12-16T00:09:47;17.30;;;10.40;;
20150;SDS011;10236;49.638;6.830;2022-12-16T00:12:13;6.03;;;3.97;;
20150;SDS011;10236;49.638;6.830;2022-12-16T00:14:39;6.53;;;3.70;;
20150;SDS011;10236;49.638;6.830;2022-12-16T00:17:05;6.60;;;3.37;;
20150;SDS011;10236;49.638;6.830;2022-12-16T00:19:31;6.47;;;3.70;;
20150;SDS011;10236;49.638;6.830;2022-12-16T00:21:57;4.93;;;3.10;;
20150;SDS011;10236;49.638;6.830;2022-12-16T00:24:23;6.93;;;3.67;;
20150;SDS011;10236;49.638;6.830;2022-12-16T00:26:49;5.13;;;3.17;;
20150;SDS011;10236;49.638;6.830;2022-12-16T00:29:16;6.37;;;3.63;;
20150;SDS011;10236;49.638;6.830;2022-12-16T00:31:42;5.47;;;2.93;;
20150;SDS011;10236;49.638;6.830;2022-12-16T00:34:12;5.93;;;2.83;;
20150;SDS011;10236;49.638;6.830;2022-12-16T00:36:38;5.30;;;2.60;;
20150;SDS011;10236;49.638;6.830;2022-12-16T00:39:03;6.17;;;3.20;;
20150;SDS011;10236;49.638;6.830;2022-12-16T00:41:29;4.77;;;2.80;;
20150;SDS011;10236;49.638;6.830;2022-12-16T00:43:55;4.87;;;2.30;;
20150;SDS011;10236;49.638;6.830;2022-12-16T00:46:21;4.70;;;2.47;;
20150;SDS011;10236;49.638;6.830;2022-12-16T00:48:47;3.70;;;2.30;;
20150;SDS011;10236;49.638;6.830;2022-12-16T00:51:13;4.50;;;2.47;;
20150;SDS011;10236;49.638;6.830;2022-12-16T00:53:39;4.87;;;3.00;;
20150;SDS011;10236;49.638;6.830;2022-12-16T00:56:09;4.33;;;2.47;;
20150;SDS011;10236;49.638;6.830;2022-12-16T00:58:36;5.33;;;3.00;;
20150;SDS011;10236;49.638;6.830;2022-12-16T01:01:02;16.20;;;9.57;;
20150;SDS011;10236;49.638;6.830;2022-12-16T01:03:28;17.40;;;9.37;;
20150;SDS011;10236;49.638;6.830;2022-12-16T01:05:54;17.50;;;9.27;;
20150;SDS011;10236;49.638;6.830;2022-12-16T01:08:20;19.83;;;10.47;;
20150;SDS011;10236;49.638;6.830;2022-12-16T01:10:53;17.10;;;10.20;;
20150;SDS011;10236;49.638;6.830;2022-12-16T01:13:20;14.60;;;8.33;;
20150;SDS011;10236;49.638;6.830;2022-12-16T01:15:46;22.07;;;12.67;;
20150;SDS011;10236;49.638;6.830;2022-12-16T01:18:12;24.20;;;13.50;;
20150;SDS011;10236;49.638;6.830;2022-12-16T01:20:38;25.10;;;14.87;;
20150;SDS011;10236;49.638;6.830;2022-12-16T01:23:04;24.53;;;14.03;;
20150;SDS011;10236;49.638;6.830;2022-12-16T01:25:30;22.23;;;11.50;;
20150;SDS011;10236;49.638;6.830;2022-12-16T01:27:56;19.50;;;11.20;;
20150;SDS011;10236;49.638;6.830;2022-12-16T01:30:22;25.63;;;14.50;;
20150;SDS011;10236;49.638;6.830;2022-12-16T01:32:48;22.47;;;12.17;;
20150;SDS011;10236;49.638;6.830;2022-12-16T01:35:15;17.90;;;10.17;;
20150;SDS011;10236;49.638;6.830;2022-12-16T01:37:41;17.43;;;9.77;;
20150;SDS011;10236;49.638;6.830;2022-12-16T01:40:08;17.50;;;9.50;;
20150;SDS011;10236;49.638;6.830;2022-12-16T01:42:42;12.63;;;7.40;;
20150;SDS011;10236;49.638;6.830;2022-12-16T01:47:51;29.07;;;16.83;;
20150;SDS011;10236;49.638;6.830;2022-12-16T01:50:18;24.37;;;13.87;;
20150;SDS011;10236;49.638;6.830;2022-12-16T01:52:49;23.57;;;13.10;;
20150;SDS011;10236;49.638;6.830;2022-12-16T01:57:47;24.77;;;13.33;;
20150;SDS011;10236;49.638;6.830;2022-12-16T02:00:13;23.73;;;14.27;;
20150;SDS011;10236;49.638;6.830;2022-12-16T02:02:41;26.23;;;15.00;;
20150;SDS011;10236;49.638;6.830;2022-12-16T02:05:08;23.67;;;14.10;;
20150;SDS011;10236;49.638;6.830;2022-12-16T02:07:50;21.07;;;12.67;;
20150;SDS011;10236;49.638;6.830;2022-12-16T02:10:16;20.63;;;11.60;;
20150;SDS011;10236;49.638;6.830;2022-12-16T02:18:44;22.13;;;12.80;;
20150;SDS011;10236;49.638;6.830;2022-12-16T02:23:59;28.67;;;14.47;;
20150;SDS011;10236;49.638;6.830;2022-12-16T02:31:51;30.53;;;15.03;;
20150;SDS011;10236;49.638;6.830;2022-12-16T02:34:33;28.10;;;15.87;;
20150;SDS011;10236;49.638;6.830;2022-12-16T02:37:12;31.80;;;17.20;;
20150;SDS011;10236;49.638;6.830;2022-12-16T02:39:48;31.23;;;16.73;;
20150;SDS011;10236;49.638;6.830;2022-12-16T02:45:20;24.80;;;14.97;;
20150;SDS011;10236;49.638;6.830;2022-12-16T02:47:47;22.27;;;12.40;;
20150;SDS011;10236;49.638;6.830;2022-12-16T02:50:20;20.60;;;11.13;;
20150;SDS011;10236;49.638;6.830;2022-12-16T02:52:47;23.47;;;13.10;;
20150;SDS011;10236;49.638;6.830;2022-12-16T02:55:13;24.40;;;12.83;;
20150;SDS011;10236;49.638;6.830;2022-12-16T03:00:13;20.60;;;12.43;;
20150;SDS011;10236;49.638;6.830;2022-12-16T03:02:48;24.00;;;14.10;;
20150;SDS011;10236;49.638;6.830;2022-12-16T03:05:20;21.13;;;11.07;;
20150;SDS011;10236;49.638;6.830;2022-12-16T03:07:48;19.83;;;10.87;;
20150;SDS011;10236;49.638;6.830;2022-12-16T03:10:17;20.20;;;12.37;;
20150;SDS011;10236;49.638;6.830;2022-12-16T03:12:44;22.57;;;13.20;;
20150;SDS011;10236;49.638;6.830;2022-12-16T03:15:11;23.00;;;12.77;;
20150;SDS011;10236;49.638;6.830;2022-12-16T03:17:38;20.10;;;11.30;;
20150;SDS011;10236;49.638;6.830;2022-12-16T03:20:26;17.97;;;10.70;;
20150;SDS011;10236;49.638;6.830;2022-12-16T03:22:50;23.10;;;12.63;;
20150;SDS011;10236;49.638;6.830;2022-12-16T03:25:18;20.00;;;12.23;;
20150;SDS011;10236;49.638;6.830;2022-12-16T03:30:23;22.20;;;12.80;;
20150;SDS011;10236;49.638;6.830;2022-12-16T03:32:51;27.23;;;15.73;;
20150;SDS011;10236;49.638;6.830;2022-12-16T03:38:04;28.20;;;15.70;;
20150;SDS011;10236;49.638;6.830;2022-12-16T03:40:31;40.90;;;21.93;;
20150;SDS011;10236;49.638;6.830;2022-12-16T03:42:57;32.13;;;17.60;;
20150;SDS011;10236;49.638;6.830;2022-12-16T03:45:26;43.90;;;23.97;;
20150;SDS011;10236;49.638;6.830;2022-12-16T03:47:55;32.30;;;18.53;;
20150;SDS011;10236;49.638;6.830;2022-12-16T03:50:23;29.93;;;17.90;;
20150;SDS011;10236;49.638;6.830;2022-12-16T03:52:50;28.03;;;17.10;;
20150;SDS011;10236;49.638;6.830;2022-12-16T03:55:16;28.27;;;15.77;;
20150;SDS011;10236;49.638;6.830;2022-12-16T03:57:42;29.93;;;13.70;;
20150;SDS011;10236;49.638;6.830;2022-12-16T04:00:08;30.03;;;14.50;;
20150;SDS011;10236;49.638;6.830;2022-12-16T04:02:34;34.57;;;15.20;;
20150;SDS011;10236;49.638;6.830;2022-12-16T04:05:00;70.83;;;27.07;;
20150;SDS011;10236;49.638;6.830;2022-12-16T04:07:26;47.00;;;18.97;;
20150;SDS011;10236;49.638;6.830;2022-12-16T04:09:52;49.43;;;21.17;;
20150;SDS011;10236;49.638;6.830;2022-12-16T04:12:18;59.43;;;24.93;;
20150;SDS011;10236;49.638;6.830;2022-12-16T04:15:03;50.40;;;22.57;;
20150;SDS011;10236;49.638;6.830;2022-12-16T04:18:02;47.60;;;19.63;;
20150;SDS011;10236;49.638;6.830;2022-12-16T04:20:49;47.97;;;20.17;;
20150;SDS011;10236;49.638;6.830;2022-12-16T04:23:35;38.10;;;19.20;;
20150;SDS011;10236;49.638;6.830;2022-12-16T04:26:19;41.47;;;20.17;;
20150;SDS011;10236;49.638;6.830;2022-12-16T04:28:46;33.40;;;16.60;;
20150;SDS011;10236;49.638;6.830;2022-12-16T04:31:12;44.60;;;20.13;;
20150;SDS011;10236;49.638;6.830;2022-12-16T04:33:38;34.33;;;17.07;;
20150;SDS011;10236;49.638;6.830;2022-12-16T04:36:23;34.20;;;15.93;;
20150;SDS011;10236;49.638;6.830;2022-12-16T04:39:07;37.00;;;17.80;;
20150;SDS011;10236;49.638;6.830;2022-12-16T04:41:52;32.30;;;17.27;;
20150;SDS011;10236;49.638;6.830;2022-12-16T04:44:37;30.90;;;16.70;;
20150;SDS011;10236;49.638;6.830;2022-12-16T04:47:22;34.13;;;18.13;;
20150;SDS011;10236;49.638;6.830;2022-12-16T04:50:07;34.47;;;17.63;;
20150;SDS011;10236;49.638;6.830;2022-12-16T04:52:52;29.73;;;15.37;;
20150;SDS011;10236;49.638;6.830;2022-12-16T04:55:36;23.33;;;12.63;;
20150;SDS011;10236;49.638;6.830;2022-12-16T04:58:21;25.67;;;14.00;;
20150;SDS011;10236;49.638;6.830;2022-12-16T05:01:06;24.23;;;13.43;;
20150;SDS011;10236;49.638;6.830;2022-12-16T05:03:51;23.10;;;11.90;;
20150;SDS011;10236;49.638;6.830;2022-12-16T05:06:35;25.70;;;10.77;;
20150;SDS011;10236;49.638;6.830;2022-12-16T05:09:20;23.77;;;11.90;;
20150;SDS011;10236;49.638;6.830;2022-12-16T05:12:04;20.27;;;10.50;;
20150;SDS011;10236;49.638;6.830;2022-12-16T05:14:49;21.87;;;11.43;;
20150;SDS011;10236;49.638;6.830;2022-12-16T05:17:33;21.90;;;11.47;;
20150;SDS011;10236;49.638;6.830;2022-12-16T05:20:18;26.87;;;13.17;;
20150;SDS011;10236;49.638;6.830;2022-12-16T05:23:02;25.83;;;12.53;;
20150;SDS011;10236;49.638;6.830;2022-12-16T05:25:47;20.97;;;10.47;;
20150;SDS011;10236;49.638;6.830;2022-12-16T05:28:32;22.60;;;12.60;;
20150;SDS011;10236;49.638;6.830;2022-12-16T05:31:16;22.13;;;13.37;;
20150;SDS011;10236;49.638;6.830;2022-12-16T05:34:01;24.17;;;13.13;;
20150;SDS011;10236;49.638;6.830;2022-12-16T05:36:48;14.27;;;7.23;;
20150;SDS011;10236;49.638;6.830;2022-12-16T05:39:33;24.90;;;13.40;;
20150;SDS011;10236;49.638;6.830;2022-12-16T05:42:17;19.67;;;9.47;;
20150;SDS011;10236;49.638;6.830;2022-12-16T05:45:02;30.60;;;15.67;;
20150;SDS011;10236;49.638;6.830;2022-12-16T05:47:47;21.40;;;11.30;;
20150;SDS011;10236;49.638;6.830;2022-12-16T05:50:32;33.20;;;17.10;;
20150;SDS011;10236;49.638;6.830;2022-12-16T05:53:17;15.20;;;7.90;;
20150;SDS011;10236;49.638;6.830;2022-12-16T05:56:02;17.73;;;7.83;;
20150;SDS011;10236;49.638;6.830;2022-12-16T05:58:47;17.83;;;7.70;;
20150;SDS011;10236;49.638;6.830;2022-12-16T06:01:31;11.03;;;6.57;;
20150;SDS011;10236;49.638;6.830;2022-12-16T06:04:16;19.37;;;10.50;;
20150;SDS011;10236;49.638;6.830;2022-12-16T06:07:00;21.00;;;10.23;;
20150;SDS011;10236;49.638;6.830;2022-12-16T06:09:45;25.40;;;11.47;;
20150;SDS011;10236;49.638;6.830;2022-12-16T06:12:30;22.43;;;11.17;;
20150;SDS011;10236;49.638;6.830;2022-12-16T06:15:14;17.63;;;8.93;;
20150;SDS011;10236;49.638;6.830;2022-12-16T06:17:59;20.70;;;11.00;;
20150;SDS011;10236;49.638;6.830;2022-12-16T06:20:43;16.80;;;9.33;;
20150;SDS011;10236;49.638;6.830;2022-12-16T06:23:28;15.60;;;7.10;;
20150;SDS011;10236;49.638;6.830;2022-12-16T06:26:12;16.20;;;7.30;;
20150;SDS011;10236;49.638;6.830;2022-12-16T06:28:57;16.37;;;8.23;;
20150;SDS011;10236;49.638;6.830;2022-12-16T06:31:41;33.20;;;19.70;;
20150;SDS011;10236;49.638;6.830;2022-12-16T06:34:26;41.07;;;25.13;;
20150;SDS011;10236;49.638;6.830;2022-12-16T06:37:11;42.77;;;25.73;;
20150;SDS011;10236;49.638;6.830;2022-12-16T06:39:55;33.40;;;20.37;;
20150;SDS011;10236;49.638;6.830;2022-12-16T06:42:40;18.57;;;10.00;;
20150;SDS011;10236;49.638;6.830;2022-12-16T06:45:25;34.00;;;21.53;;
20150;SDS011;10236;49.638;6.830;2022-12-16T06:48:09;32.03;;;17.80;;
20150;SDS011;10236;49.638;6.830;2022-12-16T06:50:54;21.10;;;10.80;;
20150;SDS011;10236;49.638;6.830;2022-12-16T06:53:39;19.63;;;9.87;;
20150;SDS011;10236;49.638;6.830;2022-12-16T06:56:23;27.30;;;14.43;;
20150;SDS011;10236;49.638;6.830;2022-12-16T06:59:08;14.83;;;8.37;;
20150;SDS011;10236;49.638;6.830;2022-12-16T07:01:53;12.00;;;7.13;;
20150;SDS011;10236;49.638;6.830;2022-12-16T07:04:37;12.80;;;6.47;;
20150;SDS011;10236;49.638;6.830;2022-12-16T07:07:22;16.63;;;6.93;;
20150;SDS011;10236;49.638;6.830;2022-12-16T07:10:06;13.43;;;6.57;;
20150;SDS011;10236;49.638;6.830;2022-12-16T07:12:51;19.70;;;11.53;;
20150;SDS011;10236;49.638;6.830;2022-12-16T07:15:39;13.70;;;6.67;;
20150;SDS011;10236;49.638;6.830;2022-12-16T07:18:24;20.30;;;11.13;;
20150;SDS011;10236;49.638;6.830;2022-12-16T07:21:08;28.03;;;13.70;;
20150;SDS011;10236;49.638;6.830;2022-12-16T07:23:53;14.27;;;8.00;;
20150;SDS011;10236;49.638;6.830;2022-12-16T07:26:38;16.10;;;8.20;;
20150;SDS011;10236;49.638;6.830;2022-12-16T07:29:22;18.30;;;11.27;;
20150;SDS011;10236;49.638;6.830;2022-12-16T07:32:07;17.83;;;9.33;;
20150;SDS011;10236;49.638;6.830;2022-12-16T07:35:20;41.30;;;23.23;;
20150;SDS011;10236;49.638;6.830;2022-12-16T07:38:05;21.67;;;14.07;;
20150;SDS011;10236;49.638;6.830;2022-12-16T07:40:49;21.50;;;13.37;;
20150;SDS011;10236;49.638;6.830;2022-12-16T07:43:34;21.90;;;11.40;;
20150;SDS011;10236;49.638;6.830;2022-12-16T07:46:19;13.87;;;8.50;;
20150;SDS011;10236;49.638;6.830;2022-12-16T07:49:03;23.27;;;13.80;;
20150;SDS011;10236;49.638;6.830;2022-12-16T07:51:48;27.97;;;12.63;;
20150;SDS011;10236;49.638;6.830;2022-12-16T07:54:32;15.73;;;8.07;;
20150;SDS011;10236;49.638;6.830;2022-12-16T07:57:17;11.47;;;7.10;;
20150;SDS011;10236;49.638;6.830;2022-12-16T08:00:02;12.27;;;5.80;;
20150;SDS011;10236;49.638;6.830;2022-12-16T08:02:51;11.03;;;5.30;;
20150;SDS011;10236;49.638;6.830;2022-12-16T08:05:36;9.87;;;5.97;;
20150;SDS011;10236;49.638;6.830;2022-12-16T08:08:20;18.67;;;9.20;;
20150;SDS011;10236;49.638;6.830;2022-12-16T08:11:05;17.40;;;10.40;;
20150;SDS011;10236;49.638;6.830;2022-12-16T08:13:49;55.07;;;31.90;;
20150;SDS011;10236;49.638;6.830;2022-12-16T08:16:34;51.53;;;29.53;;
20150;SDS011;10236;49.638;6.830;2022-12-16T08:19:18;42.73;;;22.80;;
20150;SDS011;10236;49.638;6.830;2022-12-16T08:22:03;44.30;;;24.73;;
20150;SDS011;10236;49.638;6.830;2022-12-16T08:24:48;41.70;;;21.60;;
20150;SDS011;10236;49.638;6.830;2022-12-16T08:27:32;43.47;;;23.40;;
20150;SDS011;10236;49.638;6.830;2022-12-16T08:30:17;35.97;;;20.43;;
20150;SDS011;10236;49.638;6.830;2022-12-16T08:33:01;30.93;;;17.57;;
20150;SDS011;10236;49.638;6.830;2022-12-16T08:35:46;26.67;;;15.90;;
20150;SDS011;10236;49.638;6.830;2022-12-16T08:38:31;38.57;;;19.47;;
20150;SDS011;10236;49.638;6.830;2022-12-16T08:41:16;40.03;;;22.37;;
20150;SDS011;10236;49.638;6.830;2022-12-16T08:44:00;42.13;;;23.27;;
20150;SDS011;10236;49.638;6.830;2022-12-16T08:46:45;38.40;;;22.03;;
20150;SDS011;10236;49.638;6.830;2022-12-16T08:49:29;43.97;;;25.80;;
20150;SDS011;10236;49.638;6.830;2022-12-16T08:52:14;55.73;;;28.43;;
20150;SDS011;10236;49.638;6.830;2022-12-16T08:54:58;85.93;;;41.97;;
20150;SDS011;10236;49.638;6.830;2022-12-16T08:57:54;44.73;;;26.77;;
20150;SDS011;10236;49.638;6.830;2022-12-16T09:00:39;36.40;;;24.83;;
20150;SDS011;10236;49.638;6.830;2022-12-16T09:03:24;36.10;;;19.93;;
20150;SDS011;10236;49.638;6.830;2022-12-16T09:06:08;32.40;;;18.30;;
20150;SDS011;10236;49.638;6.830;2022-12-16T09:08:53;28.73;;;14.97;;
20150;SDS011;10236;49.638;6.830;2022-12-16T09:11:37;22.63;;;12.33;;
20150;SDS011;10236;49.638;6.830;2022-12-16T09:14:22;24.87;;;12.17;;
20150;SDS011;10236;49.638;6.830;2022-12-16T09:17:06;15.33;;;7.70;;
20150;SDS011;10236;49.638;6.830;2022-12-16T09:19:51;18.73;;;9.90;;
20150;SDS011;10236;49.638;6.830;2022-12-16T09:22:35;12.47;;;7.33;;
20150;SDS011;10236;49.638;6.830;2022-12-16T09:25:20;17.43;;;7.20;;
20150;SDS011;10236;49.638;6.830;2022-12-16T09:28:04;14.87;;;7.53;;
20150;SDS011;10236;49.638;6.830;2022-12-16T09:30:49;11.87;;;7.63;;
20150;SDS011;10236;49.638;6.830;2022-12-16T09:33:34;20.13;;;9.90;;
20150;SDS011;10236;49.638;6.830;2022-12-16T09:36:18;16.07;;;8.23;;
20150;SDS011;10236;49.638;6.830;2022-12-16T09:39:03;15.43;;;8.93;;
20150;SDS011;10236;49.638;6.830;2022-12-16T09:42:32;12.53;;;7.00;;
20150;SDS011;10236;49.638;6.830;2022-12-16T09:47:51;9.93;;;3.90;;
20150;SDS011;10236;49.638;6.830;2022-12-16T09:50:38;4.17;;;2.43;;
20150;SDS011;10236;49.638;6.830;2022-12-16T09:53:23;7.23;;;2.60;;
20150;SDS011;10236;49.638;6.830;2022-12-16T09:56:13;4.13;;;2.23;;
20150;SDS011;10236;49.638;6.830;2022-12-16T09:59:00;6.30;;;2.33;;
20150;SDS011;10236;49.638;6.830;2022-12-16T10:01:46;4.67;;;2.10;;
20150;SDS011;10236;49.638;6.830;2022-12-16T10:04:30;5.77;;;1.77;;
20150;SDS011;10236;49.638;6.830;2022-12-16T10:07:24;6.23;;;1.77;;
20150;SDS011;10236;49.638;6.830;2022-12-16T10:10:18;3.43;;;1.83;;
20150;SDS011;10236;49.638;6.830;2022-12-16T10:13:10;8.40;;;2.50;;
20150;SDS011;10236;49.638;6.830;2022-12-16T10:21:44;5.50;;;2.63;;
20150;SDS011;10236;49.638;6.830;2022-12-16T10:27:28;2.30;;;1.30;;
20150;SDS011;10236;49.638;6.830;2022-12-16T10:30:15;4.70;;;1.83;;
20150;SDS011;10236;49.638;6.830;2022-12-16T10:32:59;2.33;;;1.33;;
20150;SDS011;10236;49.638;6.830;2022-12-16T10:35:47;4.93;;;1.67;;
20150;SDS011;10236;49.638;6.830;2022-12-16T10:38:43;3.20;;;1.80;;
20150;SDS011;10236;49.638;6.830;2022-12-16T10:41:37;3.17;;;1.37;;
20150;SDS011;10236;49.638;6.830;2022-12-16T10:44:24;2.13;;;1.30;;
20150;SDS011;10236;49.638;6.830;2022-12-16T10:47:10;3.77;;;1.90;;
20150;SDS011;10236;49.638;6.830;2022-12-16T10:49:55;4.33;;;1.10;;
20150;SDS011;10236;49.638;6.830;2022-12-16T10:52:44;3.43;;;1.67;;
20150;SDS011;10236;49.638;6.830;2022-12-16T10:55:36;3.33;;;1.77;;
20150;SDS011;10236;49.638;6.830;2022-12-16T10:58:35;3.40;;;1.67;;
20150;SDS011;10236;49.638;6.830;2022-12-16T11:01:25;2.83;;;1.23;;
20150;SDS011;10236;49.638;6.830;2022-12-16T11:04:29;4.47;;;1.80;;
20150;SDS011;10236;49.638;6.830;2022-12-16T11:07:30;4.17;;;2.47;;
20150;SDS011;10236;49.638;6.830;2022-12-16T11:10:22;3.93;;;1.67;;
20150;SDS011;10236;49.638;6.830;2022-12-16T11:13:13;3.77;;;1.80;;
20150;SDS011;10236;49.638;6.830;2022-12-16T11:19:03;3.17;;;1.60;;
20150;SDS011;10236;49.638;6.830;2022-12-16T11:21:48;2.30;;;1.17;;
20150;SDS011;10236;49.638;6.830;2022-12-16T11:24:33;2.50;;;1.23;;
20150;SDS011;10236;49.638;6.830;2022-12-16T11:27:24;3.67;;;1.23;;
20150;SDS011;10236;49.638;6.830;2022-12-16T11:30:17;3.50;;;1.50;;
20150;SDS011;10236;49.638;6.830;2022-12-16T11:33:09;3.20;;;1.60;;
20150;SDS011;10236;49.638;6.830;2022-12-16T11:35:56;4.00;;;2.50;;
20150;SDS011;10236;49.638;6.830;2022-12-16T11:38:44;5.63;;;2.67;;
20150;SDS011;10236;49.638;6.830;2022-12-16T11:41:34;5.47;;;3.63;;
20150;SDS011;10236;49.638;6.830;2022-12-16T11:44:20;4.77;;;2.83;;
20150;SDS011;10236;49.638;6.830;2022-12-16T11:47:10;3.13;;;2.27;;
20150;SDS011;10236;49.638;6.830;2022-12-16T11:49:57;4.67;;;3.43;;
20150;SDS011;10236;49.638;6.830;2022-12-16T11:52:42;7.10;;;4.27;;
20150;SDS011;10236;49.638;6.830;2022-12-16T11:55:32;5.00;;;3.10;;
20150;SDS011;10236;49.638;6.830;2022-12-16T12:01:16;4.40;;;2.07;;
20150;SDS011;10236;49.638;6.830;2022-12-16T12:04:01;4.63;;;2.37;;
20150;SDS011;10236;49.638;6.830;2022-12-16T12:06:51;3.53;;;1.60;;
20150;SDS011;10236;49.638;6.830;2022-12-16T12:09:40;2.93;;;1.80;;
20150;SDS011;10236;49.638;6.830;2022-12-16T12:18:07;3.33;;;1.77;;
20150;SDS011;10236;49.638;6.830;2022-12-16T12:20:57;3.00;;;1.73;;
20150;SDS011;10236;49.638;6.830;2022-12-16T12:26:43;2.47;;;1.60;;
20150;SDS011;10236;49.638;6.830;2022-12-16T12:29:43;3.13;;;1.80;;
20150;SDS011;10236;49.638;6.830;2022-12-16T12:32:36;3.83;;;1.97;;
20150;SDS011;10236;49.638;6.830;2022-12-16T12:38:18;3.37;;;1.90;;
20150;SDS011;10236;49.638;6.830;2022-12-16T12:41:08;2.67;;;1.80;;
20150;SDS011;10236;49.638;6.830;2022-12-16T12:44:06;2.50;;;1.60;;
20150;SDS011;10236;49.638;6.830;2022-12-16T12:46:57;4.00;;;1.43;;
20150;SDS011;10236;49.638;6.830;2022-12-16T12:49:48;4.40;;;2.40;;
20150;SDS011;10236;49.638;6.830;2022-12-16T12:58:52;3.70;;;1.70;;
20150;SDS011;10236;49.638;6.830;2022-12-16T13:01:39;1.73;;;1.57;;
20150;SDS011;10236;49.638;6.830;2022-12-16T13:04:25;3.77;;;1.70;;
20150;SDS011;10236;49.638;6.830;2022-12-16T13:07:11;3.10;;;1.80;;
20150;SDS011;10236;49.638;6.830;2022-12-16T13:15:59;2.97;;;1.30;;
20150;SDS011;10236;49.638;6.830;2022-12-16T13:18:44;3.20;;;1.33;;
20150;SDS011;10236;49.638;6.830;2022-12-16T13:24:33;4.20;;;1.50;;
20150;SDS011;10236;49.638;6.830;2022-12-16T13:27:20;2.47;;;1.20;;
20150;SDS011;10236;49.638;6.830;2022-12-16T13:32:53;4.53;;;1.30;;
20150;SDS011;10236;49.638;6.830;2022-12-16T13:35:51;2.13;;;1.30;;
20150;SDS011;10236;49.638;6.830;2022-12-16T13:38:43;2.00;;;1.13;;
20150;SDS011;10236;49.638;6.830;2022-12-16T13:44:12;2.67;;;1.40;;
20150;SDS011;10236;49.638;6.830;2022-12-16T13:53:18;2.57;;;1.43;;
20150;SDS011;10236;49.638;6.830;2022-12-16T13:56:03;1.80;;;0.90;;
20150;SDS011;10236;49.638;6.830;2022-12-16T13:58:52;2.60;;;1.23;;
20150;SDS011;10236;49.638;6.830;2022-12-16T14:01:51;3.00;;;1.27;;
20150;SDS011;10236;49.638;6.830;2022-12-16T14:04:38;3.00;;;1.40;;
20150;SDS011;10236;49.638;6.830;2022-12-16T14:07:23;3.17;;;1.03;;
20150;SDS011;10236;49.638;6.830;2022-12-16T14:13:26;2.10;;;0.80;;
20150;SDS011;10236;49.638;6.830;2022-12-16T14:25:05;1.70;;;0.97;;
20150;SDS011;10236;49.638;6.830;2022-12-16T14:27:50;3.20;;;1.00;;
20150;SDS011;10236;49.638;6.830;2022-12-16T14:30:35;2.30;;;1.50;;
20150;SDS011;10236;49.638;6.830;2022-12-16T14:33:24;4.07;;;2.17;;
20150;SDS011;10236;49.638;6.830;2022-12-16T14:39:07;6.60;;;2.47;;
20150;SDS011;10236;49.638;6.830;2022-12-16T14:41:52;3.17;;;1.70;;
20150;SDS011;10236;49.638;6.830;2022-12-16T14:44:37;3.10;;;1.57;;
20150;SDS011;10236;49.638;6.830;2022-12-16T14:47:21;3.57;;;1.93;;
20150;SDS011;10236;49.638;6.830;2022-12-16T14:50:20;3.60;;;2.50;;
20150;SDS011;10236;49.638;6.830;2022-12-16T14:53:15;3.10;;;2.27;;
20150;SDS011;10236;49.638;6.830;2022-12-16T15:02:01;49.47;;;24.67;;
20150;SDS011;10236;49.638;6.830;2022-12-16T15:04:48;3.07;;;1.70;;
20150;SDS011;10236;49.638;6.830;2022-12-16T15:07:33;2.80;;;1.33;;
20150;SDS011;10236;49.638;6.830;2022-12-16T15:10:20;3.20;;;1.30;;
20150;SDS011;10236;49.638;6.830;2022-12-16T15:13:09;28.27;;;20.27;;
20150;SDS011;10236;49.638;6.830;2022-12-16T15:15:56;5.67;;;4.00;;
20150;SDS011;10236;49.638;6.830;2022-12-16T15:18:42;4.30;;;2.30;;
20150;SDS011;10236;49.638;6.830;2022-12-16T15:21:27;14.10;;;9.13;;
20150;SDS011;10236;49.638;6.830;2022-12-16T15:24:16;4.37;;;2.87;;
20150;SDS011;10236;49.638;6.830;2022-12-16T15:30:29;10.07;;;6.30;;
20150;SDS011;10236;49.638;6.830;2022-12-16T15:33:04;16.73;;;9.97;;
20150;SDS011;10236;49.638;6.830;2022-12-16T15:35:49;8.27;;;3.80;;
20150;SDS011;10236;49.638;6.830;2022-12-16T15:38:34;4.60;;;3.17;;
20150;SDS011;10236;49.638;6.830;2022-12-16T15:41:32;6.80;;;4.10;;
20150;SDS011;10236;49.638;6.830;2022-12-16T15:44:18;4.90;;;2.87;;
20150;SDS011;10236;49.638;6.830;2022-12-16T15:47:03;4.30;;;2.50;;
20150;SDS011;10236;49.638;6.830;2022-12-16T15:49:48;9.17;;;5.33;;
20150;SDS011;10236;49.638;6.830;2022-12-16T15:52:41;11.13;;;6.40;;
20150;SDS011;10236;49.638;6.830;2022-12-16T15:55:33;12.20;;;6.67;;
20150;SDS011;10236;49.638;6.830;2022-12-16T15:58:34;14.20;;;7.67;;
20150;SDS011;10236;49.638;6.830;2022-12-16T16:01:24;15.70;;;10.23;;
20150;SDS011;10236;49.638;6.830;2022-12-16T16:04:22;14.37;;;8.50;;
20150;SDS011;10236;49.638;6.830;2022-12-16T16:07:19;29.47;;;17.53;;
20150;SDS011;10236;49.638;6.830;2022-12-16T16:10:07;11.67;;;7.27;;
20150;SDS011;10236;49.638;6.830;2022-12-16T16:12:52;10.57;;;4.93;;
20150;SDS011;10236;49.638;6.830;2022-12-16T16:15:53;7.13;;;3.53;;
20150;SDS011;10236;49.638;6.830;2022-12-16T16:18:39;6.87;;;3.40;;
20150;SDS011;10236;49.638;6.830;2022-12-16T16:21:24;7.33;;;3.47;;
20150;SDS011;10236;49.638;6.830;2022-12-16T16:24:08;6.20;;;3.47;;
20150;SDS011;10236;49.638;6.830;2022-12-16T16:26:53;6.97;;;3.23;;
20150;SDS011;10236;49.638;6.830;2022-12-16T16:29:38;6.20;;;3.13;;
20150;SDS011;10236;49.638;6.830;2022-12-16T16:32:23;7.73;;;3.90;;
20150;SDS011;10236;49.638;6.830;2022-12-16T16:35:07;5.00;;;3.30;;
20150;SDS011;10236;49.638;6.830;2022-12-16T16:37:53;6.37;;;3.33;;
20150;SDS011;10236;49.638;6.830;2022-12-16T16:40:39;10.30;;;4.40;;
20150;SDS011;10236;49.638;6.830;2022-12-16T16:43:24;6.43;;;3.90;;
20150;SDS011;10236;49.638;6.830;2022-12-16T16:49:09;7.47;;;4.40;;
20150;SDS011;10236;49.638;6.830;2022-12-16T16:51:54;9.53;;;5.60;;
20150;SDS011;10236;49.638;6.830;2022-12-16T16:54:39;7.90;;;5.53;;
20150;SDS011;10236;49.638;6.830;2022-12-16T16:57:24;46.07;;;18.57;;
20150;SDS011;10236;49.638;6.830;2022-12-16T17:00:10;37.87;;;16.17;;
20150;SDS011;10236;49.638;6.830;2022-12-16T17:02:54;20.67;;;10.23;;
20150;SDS011;10236;49.638;6.830;2022-12-16T17:05:39;21.03;;;9.63;;
20150;SDS011;10236;49.638;6.830;2022-12-16T17:08:24;14.17;;;6.37;;
20150;SDS011;10236;49.638;6.830;2022-12-16T17:11:15;68.63;;;31.93;;
20150;SDS011;10236;49.638;6.830;2022-12-16T17:14:00;10.60;;;5.47;;
20150;SDS011;10236;49.638;6.830;2022-12-16T17:16:44;64.00;;;26.83;;
20150;SDS011;10236;49.638;6.830;2022-12-16T17:19:29;17.87;;;8.87;;
20150;SDS011;10236;49.638;6.830;2022-12-16T17:22:13;9.00;;;3.63;;
20150;SDS011;10236;49.638;6.830;2022-12-16T17:24:58;23.13;;;19.00;;
20150;SDS011;10236;49.638;6.830;2022-12-16T17:27:43;6.80;;;4.83;;
20150;SDS011;10236;49.638;6.830;2022-12-16T17:30:28;16.43;;;7.30;;
20150;SDS011;10236;49.638;6.830;2022-12-16T17:33:13;7.97;;;4.27;;
20150;SDS011;10236;49.638;6.830;2022-12-16T17:35:58;9.30;;;3.80;;
20150;SDS011;10236;49.638;6.830;2022-12-16T17:38:43;6.67;;;3.50;;
20150;SDS011;10236;49.638;6.830;2022-12-16T17:41:28;8.23;;;4.07;;
20150;SDS011;10236;49.638;6.830;2022-12-16T17:44:13;7.43;;;3.57;;
20150;SDS011;10236;49.638;6.830;2022-12-16T17:46:58;9.37;;;3.60;;
20150;SDS011;10236;49.638;6.830;2022-12-16T17:49:43;12.90;;;11.07;;
20150;SDS011;10236;49.638;6.830;2022-12-16T17:52:28;6.57;;;4.57;;